WZZ022 LIML-LICA
Flight info
| Callsign | WZZ022 |
|---|---|
| Flight time | 1h 27m |
| Altitude | 37000 |
| Route | LOGDI DCT LOMED DCT ALAXI DCT EVINO/N0351F190 M620 ARBUM |
| Aircraft | A21N/M-SDE2E3FGHIRWXY/LB1 |
Departure
| Time | 2026-05-01 09:32 |
|---|---|
| Airport | Milano Linate Airport (LIML) |
Arrival
| Time | 2026-05-01 10:59 |
|---|---|
| Airport | Lamezia Terme Sant'Eufemia International Airport (LICA) |
| Time | Latitude | Longitude | Altitude | Speed | Heading |
|---|---|---|---|---|---|
| 2026-05-01 09:05 | 45.45511 | 9.28066 | 363 ft | 0 kts | 90° |
| 2026-05-01 09:25 | 45.45510 | 9.28111 | 363 ft | 4 kts | 95° |
| 2026-05-01 09:25 | 45.45455 | 9.28153 | 369 ft | 7 kts | 184° |
| 2026-05-01 09:26 | 45.45401 | 9.28149 | 369 ft | 9 kts | 182° |
| 2026-05-01 09:26 | 45.45262 | 9.28072 | 367 ft | 13 kts | 206° |
| 2026-05-01 09:26 | 45.45170 | 9.28050 | 369 ft | 15 kts | 176° |
| 2026-05-01 09:27 | 45.44952 | 9.28025 | 370 ft | 17 kts | 237° |
| 2026-05-01 09:27 | 45.44877 | 9.27933 | 368 ft | 15 kts | 174° |
| 2026-05-01 09:27 | 45.44765 | 9.27947 | 368 ft | 17 kts | 175° |
| 2026-05-01 09:28 | 45.44644 | 9.27960 | 363 ft | 17 kts | 175° |
| 2026-05-01 09:28 | 45.44518 | 9.27974 | 367 ft | 19 kts | 175° |
| 2026-05-01 09:28 | 45.44379 | 9.27989 | 366 ft | 21 kts | 176° |
| 2026-05-01 09:28 | 45.44227 | 9.28005 | 363 ft | 23 kts | 175° |
| 2026-05-01 09:29 | 45.43888 | 9.28042 | 367 ft | 26 kts | 175° |
| 2026-05-01 09:29 | 45.43703 | 9.28061 | 364 ft | 27 kts | 175° |
| 2026-05-01 09:30 | 45.43467 | 9.28063 | 365 ft | 15 kts | 219° |
| 2026-05-01 09:30 | 45.43441 | 9.27916 | 366 ft | 16 kts | 267° |
| 2026-05-01 09:30 | 45.43476 | 9.27794 | 370 ft | 8 kts | 346° |
| 2026-05-01 09:31 | 45.43504 | 9.27808 | 368 ft | 5 kts | 21° |
| 2026-05-01 09:31 | 45.43521 | 9.27810 | 366 ft | 0 kts | 357° |
| 2026-05-01 09:31 | 45.43523 | 9.27809 | 367 ft | 3 kts | 357° |
| 2026-05-01 09:32 | 45.43828 | 9.27780 | 368 ft | 89 kts | 355° |
| 2026-05-01 09:32 | 45.46097 | 9.27521 | 652 ft | 210 kts | 354° |
| 2026-05-01 09:32 | 45.47593 | 9.27334 | 1251 ft | 216 kts | 354° |
| 2026-05-01 09:33 | 45.49048 | 9.27502 | 2320 ft | 210 kts | 19° |
| 2026-05-01 09:33 | 45.50134 | 9.28841 | 3218 ft | 213 kts | 62° |
| 2026-05-01 09:33 | 45.49955 | 9.32991 | 3995 ft | 218 kts | 109° |
| 2026-05-01 09:34 | 45.49453 | 9.35045 | 4016 ft | 220 kts | 109° |
| 2026-05-01 09:34 | 45.48985 | 9.37132 | 4021 ft | 221 kts | 107° |
| 2026-05-01 09:34 | 45.47785 | 9.41195 | 4029 ft | 236 kts | 123° |
| 2026-05-01 09:35 | 45.46844 | 9.43193 | 4019 ft | 247 kts | 125° |
| 2026-05-01 09:35 | 45.44889 | 9.47259 | 4024 ft | 249 kts | 124° |
| 2026-05-01 09:35 | 45.43911 | 9.49308 | 4033 ft | 250 kts | 124° |
| 2026-05-01 09:36 | 45.42930 | 9.51370 | 3999 ft | 257 kts | 124° |
| 2026-05-01 09:36 | 45.41910 | 9.53508 | 4024 ft | 263 kts | 124° |
| 2026-05-01 09:36 | 45.40886 | 9.55661 | 4018 ft | 262 kts | 124° |
| 2026-05-01 09:36 | 45.39865 | 9.57809 | 4023 ft | 262 kts | 124° |
| 2026-05-01 09:37 | 45.38846 | 9.59961 | 4021 ft | 262 kts | 124° |
| 2026-05-01 09:37 | 45.36321 | 9.63624 | 4027 ft | 261 kts | 147° |
| 2026-05-01 09:37 | 45.34792 | 9.65017 | 4020 ft | 261 kts | 149° |
| 2026-05-01 09:38 | 45.31682 | 9.67677 | 4018 ft | 261 kts | 150° |
| 2026-05-01 09:38 | 45.30119 | 9.69004 | 4030 ft | 261 kts | 150° |
| 2026-05-01 09:38 | 45.28566 | 9.70340 | 4022 ft | 261 kts | 149° |
| 2026-05-01 09:39 | 45.25470 | 9.73039 | 4025 ft | 261 kts | 149° |
| 2026-05-01 09:39 | 45.23941 | 9.74365 | 4006 ft | 261 kts | 149° |
| 2026-05-01 09:39 | 45.22391 | 9.75706 | 4087 ft | 263 kts | 149° |
| 2026-05-01 09:40 | 45.20808 | 9.77082 | 4713 ft | 268 kts | 149° |
| 2026-05-01 09:40 | 45.17637 | 9.79820 | 7177 ft | 269 kts | 149° |
| 2026-05-01 09:40 | 45.16036 | 9.81217 | 8358 ft | 272 kts | 149° |
| 2026-05-01 09:41 | 45.14408 | 9.82629 | 9498 ft | 277 kts | 149° |
| 2026-05-01 09:41 | 45.10874 | 9.85684 | 11030 ft | 318 kts | 149° |
| 2026-05-01 09:41 | 45.08962 | 9.87345 | 12058 ft | 327 kts | 149° |
| 2026-05-01 09:42 | 45.06998 | 9.89033 | 13143 ft | 333 kts | 149° |
| 2026-05-01 09:42 | 45.05005 | 9.90752 | 14189 ft | 338 kts | 149° |
| 2026-05-01 09:42 | 45.01630 | 9.93662 | 15800 ft | 346 kts | 149° |
| 2026-05-01 09:43 | 44.97447 | 9.97260 | 17568 ft | 357 kts | 149° |
| 2026-05-01 09:43 | 44.95340 | 9.99069 | 18153 ft | 359 kts | 149° |
| 2026-05-01 09:43 | 44.93221 | 10.00888 | 18523 ft | 364 kts | 149° |
| 2026-05-01 09:44 | 44.88838 | 10.04645 | 20137 ft | 372 kts | 149° |
| 2026-05-01 09:44 | 44.86618 | 10.06545 | 20936 ft | 376 kts | 149° |
| 2026-05-01 09:44 | 44.84373 | 10.08464 | 21660 ft | 380 kts | 149° |
| 2026-05-01 09:45 | 44.82091 | 10.10414 | 22362 ft | 384 kts | 149° |
| 2026-05-01 09:45 | 44.77468 | 10.14358 | 23655 ft | 392 kts | 149° |
| 2026-05-01 09:45 | 44.75121 | 10.16357 | 24261 ft | 396 kts | 149° |
| 2026-05-01 09:46 | 44.72751 | 10.18385 | 24770 ft | 403 kts | 148° |
| 2026-05-01 09:46 | 44.70411 | 10.20674 | 25002 ft | 415 kts | 143° |
| 2026-05-01 09:46 | 44.68112 | 10.23223 | 25229 ft | 427 kts | 141° |
| 2026-05-01 09:46 | 44.65811 | 10.25938 | 25445 ft | 438 kts | 140° |
| 2026-05-01 09:47 | 44.63471 | 10.28773 | 25653 ft | 449 kts | 139° |
| 2026-05-01 09:47 | 44.61087 | 10.31679 | 25851 ft | 459 kts | 139° |
| 2026-05-01 09:47 | 44.58652 | 10.34632 | 26079 ft | 467 kts | 140° |
| 2026-05-01 09:47 | 44.56180 | 10.37606 | 26547 ft | 469 kts | 140° |
| 2026-05-01 09:48 | 44.53728 | 10.40535 | 27086 ft | 468 kts | 140° |
| 2026-05-01 09:48 | 44.51214 | 10.43524 | 27655 ft | 468 kts | 140° |
| 2026-05-01 09:48 | 44.48762 | 10.46427 | 28172 ft | 467 kts | 140° |
| 2026-05-01 09:48 | 44.46248 | 10.49399 | 28678 ft | 466 kts | 140° |
| 2026-05-01 09:49 | 44.43800 | 10.52289 | 29167 ft | 466 kts | 140° |
| 2026-05-01 09:49 | 44.41328 | 10.55204 | 29692 ft | 464 kts | 140° |
| 2026-05-01 09:49 | 44.38857 | 10.58114 | 30194 ft | 462 kts | 140° |
| 2026-05-01 09:49 | 44.36399 | 10.61007 | 30643 ft | 462 kts | 140° |
| 2026-05-01 09:50 | 44.33940 | 10.63898 | 31092 ft | 461 kts | 140° |
| 2026-05-01 09:50 | 44.31491 | 10.66774 | 31456 ft | 458 kts | 140° |
| 2026-05-01 09:50 | 44.27418 | 10.71551 | 31441 ft | 461 kts | 140° |
| 2026-05-01 09:51 | 44.22499 | 10.77309 | 31424 ft | 461 kts | 140° |
| 2026-05-01 09:51 | 44.16769 | 10.83999 | 31429 ft | 462 kts | 140° |
| 2026-05-01 09:52 | 44.12630 | 10.88820 | 31429 ft | 463 kts | 140° |
| 2026-05-01 09:52 | 44.07684 | 10.94571 | 31422 ft | 462 kts | 140° |
| 2026-05-01 09:53 | 44.02777 | 11.00252 | 31433 ft | 462 kts | 141° |
| 2026-05-01 09:53 | 43.97719 | 11.05791 | 31428 ft | 462 kts | 143° |
| 2026-05-01 09:54 | 43.92624 | 11.11191 | 31426 ft | 459 kts | 143° |
| 2026-05-01 09:54 | 43.87554 | 11.16558 | 31432 ft | 458 kts | 143° |
| 2026-05-01 09:55 | 43.82501 | 11.21923 | 31422 ft | 456 kts | 143° |
| 2026-05-01 09:55 | 43.77466 | 11.27273 | 31432 ft | 456 kts | 143° |
| 2026-05-01 09:56 | 43.72440 | 11.32603 | 31431 ft | 456 kts | 143° |
| 2026-05-01 09:56 | 43.67420 | 11.37914 | 31431 ft | 458 kts | 143° |
| 2026-05-01 09:57 | 43.62358 | 11.43258 | 31421 ft | 458 kts | 143° |
| 2026-05-01 09:57 | 43.57301 | 11.48585 | 31433 ft | 457 kts | 143° |
| 2026-05-01 09:58 | 43.52243 | 11.53901 | 31432 ft | 457 kts | 143° |
| 2026-05-01 09:58 | 43.47190 | 11.59199 | 31432 ft | 457 kts | 143° |
| 2026-05-01 09:59 | 43.42118 | 11.64504 | 31433 ft | 457 kts | 143° |
| 2026-05-01 09:59 | 43.37045 | 11.69803 | 31434 ft | 458 kts | 143° |
| 2026-05-01 10:00 | 43.31961 | 11.75100 | 31430 ft | 458 kts | 143° |
| 2026-05-01 10:00 | 43.26886 | 11.80376 | 31429 ft | 457 kts | 143° |
| 2026-05-01 10:01 | 43.21800 | 11.85652 | 31541 ft | 461 kts | 143° |
| 2026-05-01 10:01 | 43.19246 | 11.88297 | 32042 ft | 458 kts | 143° |
| 2026-05-01 10:01 | 43.16707 | 11.90925 | 32508 ft | 456 kts | 143° |
| 2026-05-01 10:02 | 43.14177 | 11.93538 | 32924 ft | 455 kts | 143° |
| 2026-05-01 10:02 | 43.11652 | 11.96145 | 33302 ft | 454 kts | 143° |
| 2026-05-01 10:02 | 43.09171 | 11.98704 | 33658 ft | 453 kts | 143° |
| 2026-05-01 10:02 | 43.06653 | 12.01298 | 34018 ft | 452 kts | 143° |
| 2026-05-01 10:03 | 43.04144 | 12.03881 | 34376 ft | 451 kts | 143° |
| 2026-05-01 10:03 | 43.01641 | 12.06455 | 34534 ft | 448 kts | 143° |
| 2026-05-01 10:03 | 42.96642 | 12.11586 | 34431 ft | 451 kts | 143° |
| 2026-05-01 10:04 | 42.91620 | 12.16731 | 34429 ft | 452 kts | 143° |
| 2026-05-01 10:04 | 42.86584 | 12.21880 | 34428 ft | 452 kts | 143° |
| 2026-05-01 10:05 | 42.81539 | 12.27026 | 34429 ft | 452 kts | 143° |
| 2026-05-01 10:05 | 42.76497 | 12.32158 | 34429 ft | 452 kts | 143° |
| 2026-05-01 10:06 | 42.71498 | 12.37237 | 34428 ft | 451 kts | 143° |
| 2026-05-01 10:06 | 42.66462 | 12.42342 | 34430 ft | 452 kts | 143° |
| 2026-05-01 10:07 | 42.61423 | 12.47440 | 34429 ft | 451 kts | 143° |
| 2026-05-01 10:07 | 42.56386 | 12.52525 | 34428 ft | 451 kts | 143° |
| 2026-05-01 10:08 | 42.48871 | 12.60092 | 34429 ft | 450 kts | 143° |
| 2026-05-01 10:09 | 42.43852 | 12.65134 | 34429 ft | 451 kts | 144° |
| 2026-05-01 10:09 | 42.38804 | 12.70194 | 34428 ft | 452 kts | 144° |
| 2026-05-01 10:10 | 42.33733 | 12.75266 | 34428 ft | 455 kts | 144° |
| 2026-05-01 10:10 | 42.26137 | 12.82846 | 34427 ft | 453 kts | 144° |
| 2026-05-01 10:11 | 42.21102 | 12.87856 | 34428 ft | 452 kts | 144° |
| 2026-05-01 10:11 | 42.16031 | 12.92893 | 34429 ft | 454 kts | 144° |
| 2026-05-01 10:12 | 42.10945 | 12.97934 | 34429 ft | 454 kts | 144° |
| 2026-05-01 10:13 | 42.03306 | 13.05488 | 34427 ft | 454 kts | 144° |
| 2026-05-01 10:13 | 41.98199 | 13.10523 | 34429 ft | 456 kts | 144° |
| 2026-05-01 10:14 | 41.90488 | 13.18107 | 34429 ft | 458 kts | 144° |
| 2026-05-01 10:14 | 41.85349 | 13.23150 | 34428 ft | 456 kts | 144° |
| 2026-05-01 10:15 | 41.80267 | 13.28126 | 34428 ft | 455 kts | 144° |
| 2026-05-01 10:15 | 41.75144 | 13.33132 | 34428 ft | 453 kts | 144° |
| 2026-05-01 10:16 | 41.70087 | 13.38152 | 34429 ft | 451 kts | 143° |
| 2026-05-01 10:17 | 41.62621 | 13.45734 | 34429 ft | 451 kts | 143° |
| 2026-05-01 10:17 | 41.55129 | 13.53315 | 34429 ft | 450 kts | 143° |
| 2026-05-01 10:18 | 41.47640 | 13.60851 | 34429 ft | 449 kts | 143° |
| 2026-05-01 10:19 | 41.42646 | 13.65863 | 34429 ft | 449 kts | 143° |
| 2026-05-01 10:19 | 41.37640 | 13.70879 | 34429 ft | 451 kts | 143° |
| 2026-05-01 10:20 | 41.30119 | 13.78394 | 34429 ft | 449 kts | 143° |
| 2026-05-01 10:20 | 41.25116 | 13.83381 | 34428 ft | 449 kts | 143° |
| 2026-05-01 10:21 | 41.17612 | 13.90843 | 34429 ft | 449 kts | 143° |
| 2026-05-01 10:22 | 41.10109 | 13.98284 | 34427 ft | 449 kts | 143° |
| 2026-05-01 10:23 | 41.02614 | 14.05694 | 34428 ft | 449 kts | 143° |
| 2026-05-01 10:23 | 40.95102 | 14.13097 | 34428 ft | 449 kts | 143° |
| 2026-05-01 10:24 | 40.85063 | 14.22958 | 34430 ft | 450 kts | 143° |
| 2026-05-01 10:25 | 40.75017 | 14.32791 | 34429 ft | 449 kts | 144° |
| 2026-05-01 10:26 | 40.70029 | 14.37658 | 34429 ft | 449 kts | 144° |
| 2026-05-01 10:27 | 40.59974 | 14.47441 | 34429 ft | 450 kts | 144° |
| 2026-05-01 10:28 | 40.52426 | 14.54761 | 34429 ft | 449 kts | 144° |
| 2026-05-01 10:28 | 40.44877 | 14.62061 | 34429 ft | 449 kts | 144° |
| 2026-05-01 10:29 | 40.37366 | 14.69302 | 34429 ft | 449 kts | 144° |
| 2026-05-01 10:30 | 40.27293 | 14.78983 | 34429 ft | 449 kts | 144° |
| 2026-05-01 10:31 | 40.17221 | 14.88626 | 34429 ft | 449 kts | 144° |
| 2026-05-01 10:32 | 40.09651 | 14.95850 | 34429 ft | 449 kts | 144° |
| 2026-05-01 10:33 | 39.99595 | 15.05414 | 34429 ft | 449 kts | 144° |
| 2026-05-01 10:34 | 39.92017 | 15.12598 | 34429 ft | 449 kts | 144° |
| 2026-05-01 10:34 | 39.86968 | 15.17374 | 34429 ft | 449 kts | 144° |
| 2026-05-01 10:35 | 39.79425 | 15.24493 | 33631 ft | 442 kts | 144° |
| 2026-05-01 10:35 | 39.76916 | 15.26856 | 32356 ft | 451 kts | 144° |
| 2026-05-01 10:35 | 39.74349 | 15.29272 | 31071 ft | 459 kts | 144° |
| 2026-05-01 10:36 | 39.69212 | 15.34230 | 28730 ft | 463 kts | 142° |
| 2026-05-01 10:36 | 39.66731 | 15.36793 | 27613 ft | 447 kts | 141° |
| 2026-05-01 10:36 | 39.64377 | 15.39307 | 26528 ft | 431 kts | 141° |
| 2026-05-01 10:37 | 39.62117 | 15.41761 | 25520 ft | 415 kts | 138° |
| 2026-05-01 10:37 | 39.58027 | 15.46658 | 23985 ft | 392 kts | 138° |
| 2026-05-01 10:37 | 39.56019 | 15.49003 | 23436 ft | 385 kts | 139° |
| 2026-05-01 10:38 | 39.54027 | 15.51282 | 22862 ft | 380 kts | 139° |
| 2026-05-01 10:38 | 39.52044 | 15.53518 | 22254 ft | 376 kts | 139° |
| 2026-05-01 10:38 | 39.50071 | 15.55725 | 21641 ft | 372 kts | 140° |
| 2026-05-01 10:38 | 39.48112 | 15.57905 | 21019 ft | 369 kts | 140° |
| 2026-05-01 10:39 | 39.46824 | 15.59335 | 20604 ft | 367 kts | 140° |
| 2026-05-01 10:39 | 39.44895 | 15.61472 | 19980 ft | 363 kts | 140° |
| 2026-05-01 10:39 | 39.42985 | 15.63585 | 19355 ft | 360 kts | 140° |
| 2026-05-01 10:39 | 39.41089 | 15.65680 | 18727 ft | 357 kts | 140° |
| 2026-05-01 10:40 | 39.39213 | 15.67751 | 18101 ft | 353 kts | 140° |
| 2026-05-01 10:40 | 39.37347 | 15.69808 | 17472 ft | 350 kts | 140° |
| 2026-05-01 10:40 | 39.35503 | 15.71840 | 16844 ft | 347 kts | 140° |
| 2026-05-01 10:40 | 39.33678 | 15.73849 | 16219 ft | 344 kts | 140° |
| 2026-05-01 10:41 | 39.31865 | 15.75844 | 15591 ft | 340 kts | 140° |
| 2026-05-01 10:41 | 39.30071 | 15.77816 | 14966 ft | 337 kts | 140° |
| 2026-05-01 10:41 | 39.26525 | 15.81706 | 13712 ft | 331 kts | 140° |
| 2026-05-01 10:42 | 39.24777 | 15.83618 | 13090 ft | 328 kts | 140° |
| 2026-05-01 10:42 | 39.23064 | 15.85489 | 12484 ft | 325 kts | 140° |
| 2026-05-01 10:42 | 39.21321 | 15.87392 | 11854 ft | 322 kts | 140° |
| 2026-05-01 10:42 | 39.19678 | 15.89309 | 11233 ft | 320 kts | 136° |
| 2026-05-01 10:43 | 39.18115 | 15.91281 | 10617 ft | 317 kts | 135° |
| 2026-05-01 10:43 | 39.16553 | 15.93284 | 10000 ft | 314 kts | 135° |
| 2026-05-01 10:43 | 39.15018 | 15.95254 | 9503 ft | 306 kts | 135° |
| 2026-05-01 10:43 | 39.13543 | 15.97145 | 9242 ft | 291 kts | 135° |
| 2026-05-01 10:44 | 39.12131 | 15.98955 | 8883 ft | 283 kts | 135° |
| 2026-05-01 10:44 | 39.10746 | 16.00725 | 8408 ft | 279 kts | 135° |
| 2026-05-01 10:44 | 39.09372 | 16.02481 | 7913 ft | 276 kts | 136° |
| 2026-05-01 10:44 | 39.08012 | 16.04217 | 7405 ft | 274 kts | 136° |
| 2026-05-01 10:45 | 39.06664 | 16.05937 | 6903 ft | 272 kts | 136° |
| 2026-05-01 10:45 | 39.05340 | 16.07625 | 6405 ft | 270 kts | 136° |
| 2026-05-01 10:45 | 39.03991 | 16.09344 | 5899 ft | 268 kts | 136° |
| 2026-05-01 10:45 | 39.02669 | 16.11026 | 5465 ft | 267 kts | 136° |
| 2026-05-01 10:46 | 39.01368 | 16.12683 | 5079 ft | 265 kts | 136° |
| 2026-05-01 10:46 | 39.00070 | 16.14333 | 4618 ft | 263 kts | 136° |
| 2026-05-01 10:46 | 38.98771 | 16.15989 | 4438 ft | 263 kts | 135° |
| 2026-05-01 10:46 | 38.97468 | 16.17651 | 4423 ft | 263 kts | 136° |
| 2026-05-01 10:47 | 38.96166 | 16.19305 | 4432 ft | 264 kts | 136° |
| 2026-05-01 10:47 | 38.94864 | 16.20953 | 4437 ft | 264 kts | 136° |
| 2026-05-01 10:47 | 38.93560 | 16.22605 | 4418 ft | 263 kts | 136° |
| 2026-05-01 10:47 | 38.92258 | 16.24255 | 4432 ft | 263 kts | 136° |
| 2026-05-01 10:48 | 38.90972 | 16.25924 | 4428 ft | 263 kts | 132° |
| 2026-05-01 10:48 | 38.89898 | 16.27826 | 4429 ft | 263 kts | 122° |
| 2026-05-01 10:48 | 38.88985 | 16.29868 | 4424 ft | 263 kts | 119° |
| 2026-05-01 10:48 | 38.88117 | 16.31910 | 4436 ft | 264 kts | 119° |
| 2026-05-01 10:49 | 38.87237 | 16.33975 | 4428 ft | 263 kts | 119° |
| 2026-05-01 10:49 | 38.86357 | 16.36025 | 4431 ft | 264 kts | 119° |
| 2026-05-01 10:49 | 38.85472 | 16.38087 | 4429 ft | 264 kts | 119° |
| 2026-05-01 10:49 | 38.84589 | 16.40155 | 4435 ft | 265 kts | 119° |
| 2026-05-01 10:50 | 38.83698 | 16.42226 | 4421 ft | 264 kts | 119° |
| 2026-05-01 10:50 | 38.82808 | 16.44291 | 4364 ft | 265 kts | 119° |
| 2026-05-01 10:50 | 38.81916 | 16.46354 | 4302 ft | 264 kts | 119° |
| 2026-05-01 10:50 | 38.81024 | 16.48413 | 4288 ft | 264 kts | 119° |
| 2026-05-01 10:51 | 38.80132 | 16.50475 | 4290 ft | 264 kts | 119° |
| 2026-05-01 10:51 | 38.79247 | 16.52522 | 4290 ft | 257 kts | 118° |
| 2026-05-01 10:51 | 38.78577 | 16.54574 | 4284 ft | 245 kts | 105° |
| 2026-05-01 10:51 | 38.78231 | 16.56699 | 4292 ft | 243 kts | 99° |
| 2026-05-01 10:52 | 38.78049 | 16.58844 | 4283 ft | 242 kts | 89° |
| 2026-05-01 10:52 | 38.78361 | 16.60953 | 4291 ft | 242 kts | 66° |
| 2026-05-01 10:52 | 38.79323 | 16.62652 | 4292 ft | 240 kts | 38° |
| 2026-05-01 10:52 | 38.80753 | 16.63729 | 4296 ft | 239 kts | 24° |
| 2026-05-01 10:53 | 38.82333 | 16.64385 | 4289 ft | 238 kts | 6° |
| 2026-05-01 10:53 | 38.83961 | 16.64197 | 4300 ft | 236 kts | 339° |
| 2026-05-01 10:53 | 38.85327 | 16.63076 | 4286 ft | 234 kts | 312° |
| 2026-05-01 10:53 | 38.86143 | 16.61293 | 4291 ft | 234 kts | 287° |
| 2026-05-01 10:54 | 38.86506 | 16.59259 | 4295 ft | 235 kts | 279° |
| 2026-05-01 10:54 | 38.86753 | 16.57277 | 4285 ft | 218 kts | 278° |
| 2026-05-01 10:54 | 38.86989 | 16.55206 | 4300 ft | 242 kts | 278° |
| 2026-05-01 10:54 | 38.87218 | 16.53095 | 4234 ft | 237 kts | 277° |
| 2026-05-01 10:55 | 38.87434 | 16.51008 | 3983 ft | 235 kts | 278° |
| 2026-05-01 10:55 | 38.87673 | 16.48943 | 3618 ft | 233 kts | 278° |
| 2026-05-01 10:55 | 38.87913 | 16.46928 | 3299 ft | 230 kts | 278° |
| 2026-05-01 10:55 | 38.88154 | 16.44896 | 2956 ft | 230 kts | 278° |
| 2026-05-01 10:56 | 38.88390 | 16.42858 | 2634 ft | 230 kts | 278° |
| 2026-05-01 10:56 | 38.88618 | 16.40912 | 2351 ft | 209 kts | 278° |
| 2026-05-01 10:56 | 38.88816 | 16.39169 | 2078 ft | 187 kts | 278° |
| 2026-05-01 10:56 | 38.88994 | 16.37609 | 1846 ft | 165 kts | 278° |
| 2026-05-01 10:57 | 38.89153 | 16.36228 | 1623 ft | 149 kts | 278° |
| 2026-05-01 10:57 | 38.89299 | 16.34967 | 1386 ft | 137 kts | 278° |
| 2026-05-01 10:57 | 38.89426 | 16.33786 | 1171 ft | 131 kts | 278° |
| 2026-05-01 10:57 | 38.89545 | 16.32632 | 1033 ft | 131 kts | 277° |
| 2026-05-01 10:58 | 38.89665 | 16.31481 | 918 ft | 130 kts | 278° |
| 2026-05-01 10:58 | 38.89805 | 16.30332 | 779 ft | 130 kts | 279° |
| 2026-05-01 10:58 | 38.89958 | 16.29184 | 602 ft | 130 kts | 279° |
| 2026-05-01 10:58 | 38.90085 | 16.28072 | 405 ft | 128 kts | 279° |
| 2026-05-01 10:59 | 38.90226 | 16.26908 | 221 ft | 134 kts | 278° |
| 2026-05-01 10:59 | 38.90356 | 16.25774 | 58 ft | 121 kts | 278° |
| 2026-05-01 10:59 | 38.90471 | 16.24804 | 37 ft | 99 kts | 279° |
| 2026-05-01 10:59 | 38.90551 | 16.24132 | 31 ft | 46 kts | 278° |
| 2026-05-01 11:00 | 38.90592 | 16.23807 | 33 ft | 28 kts | 281° |
| 2026-05-01 11:00 | 38.90642 | 16.23622 | 37 ft | 19 kts | 303° |
| 2026-05-01 11:00 | 38.90732 | 16.23499 | 37 ft | 19 kts | 324° |
| 2026-05-01 11:00 | 38.90837 | 16.23544 | 35 ft | 19 kts | 77° |
| 2026-05-01 11:01 | 38.90823 | 16.23713 | 35 ft | 20 kts | 99° |
| 2026-05-01 11:01 | 38.90843 | 16.23786 | 35 ft | 0 kts | 23° |
| 2026-05-01 11:05 | 38.90864 | 16.23800 | 35 ft | 8 kts | 37° |
| 2026-05-01 11:05 | 38.90880 | 16.23847 | 35 ft | 14 kts | 92° |
| 2026-05-01 11:06 | 38.90865 | 16.23984 | 35 ft | 16 kts | 98° |
| 2026-05-01 11:06 | 38.90853 | 16.24090 | 35 ft | 9 kts | 98° |
| 2026-05-01 11:06 | 38.90842 | 16.24184 | 35 ft | 10 kts | 98° |
| 2026-05-01 11:07 | 38.90848 | 16.24354 | 34 ft | 7 kts | 14° |
| 2026-05-01 11:07 | 38.90874 | 16.24363 | 35 ft | 7 kts | 33° |
| 2026-05-01 11:07 | 38.90889 | 16.24381 | 33 ft | 1 kts | 50° |